Aledo, Illinois
Current Conditions -  °F | °C
As of 6:52 PM on Wednesday 22 Oct 2014 (Local Time) from KMLI Reporting Station
Clear Clear  
Wind Chill: 46°   Ceiling: Unl
Heat Index: 48°   Visibility: 10mi
Dew Point: 36°   Wind: 5mph
Humidity: 63%   Direction: 150°SSE
Pressure: 30.21"   Gusts: NA
Location:  41.2°N, 90.75°W
Report Text: KMLI 222352Z 15004KT 10SM CLR 09/02 A3021 RMK AO2 SLP235 T00890022 10161 20089 55009
Loading
Personal Weather Stations






























Interactive Weather Map
Tropical Storm Tracking
New forecast layout! Learn more

10-Day Weather Forecast

Advertisements
Track Severe Weather on mobile